Buoy 46762

sailwx.info

Track history (hours):
 
Tides and Currents Weather Stations Pressure Air Temp Water Temp Dewpoint Dewpoint Depression Visibility Wind Speed Wind Dir Waves Ship Positions

Drifting buoy 46762

Last reported at 2015-Jan-27 05:00 UTC. Time now 2015-Jan-27 08:27 UTC.
Position N 57°31' W 142°56'.

Barometer 1012.3 mb
Water temperature 6.8 ° C

Date/timePositionNaut miles runAvg speedWind from/ knotsBaromVisibWave heightAir tempDewpointWater temp
2015-Jan-27 05:00N 57°31' W 142°56'1 1.0 1012.3 6.8
2015-Jan-27 04:00N 57°30' W 142°55'1 1.0 1012.3 6.8
2015-Jan-27 03:00N 57°31' W 142°54'2 1.8 1012.6 6.8
2015-Jan-27 02:00N 57°30' W 142°57'2 2.0 1012.8 6.8
2015-Jan-27 01:00N 57°30' W 142°53'0 0.3 1013.0 6.8
2015-Jan-27 00:00N 57°30' W 142°54'0 0.0 1013.2 6.8
2015-Jan-26 23:00N 57°30' W 142°54'0 0.4 1013.7 6.8
2015-Jan-26 22:00N 57°30' W 142°54'1 0.3 1014.1 6.8
2015-Jan-26 20:00N 57°30' W 142°53'1 1.2 1014.6 6.8
2015-Jan-26 19:00N 57°30' W 142°55'0 0.0 1014.4 6.8
2015-Jan-26 18:00N 57°30' W 142°55'0 0.4 1014.3 6.8
2015-Jan-26 17:00N 57°30' W 142°54'1 1.1 1014.1 6.8
2015-Jan-26 16:00N 57°30' W 142°53'2 1.7 1014.2 6.8
2015-Jan-26 15:00N 57°31' W 142°56'1 1.0 1014.4 6.8
2015-Jan-26 14:00N 57°30' W 142°55'1 1.3 1014.3 6.8
2015-Jan-26 13:00N 57°30' W 142°53'1 0.9 1014.3 6.8
2015-Jan-26 12:00N 57°30' W 142°55'0 0.0 1014.6 6.8
2015-Jan-26 11:00N 57°30' W 142°55'0 0.2 1014.5 6.8
2015-Jan-26 10:00N 57°30' W 142°54'0 0.1 1014.2 6.8
2015-Jan-26 07:00N 57°30' W 142°55'0 0.0 1012.8 6.8
2015-Jan-26 06:00N 57°30' W 142°55'1 0.6 1012.3 6.8
2015-Jan-26 05:00N 57°29' W 142°54'1 0.6 1011.7 6.8
2015-Jan-26 04:00N 57°29' W 142°55'2 1.9 1010.8 6.8
2015-Jan-26 03:00N 57°31' W 142°57'2 1.8 1010.0 6.8
2015-Jan-26 02:00N 57°29' W 142°58'0 0.0 1009.0 6.8
2015-Jan-26 01:00N 57°29' W 142°58'0 0.0 1008.1 6.8
2015-Jan-26 00:00N 57°29' W 142°58'0 0.0 1007.5 6.8
2015-Jan-25 23:00N 57°29' W 142°58'0 0.0 1006.9 6.8
2015-Jan-25 22:00N 57°29' W 142°58'0 0.0 1006.6 6.8
2015-Jan-25 21:00N 57°29' W 142°58'1 1.0 1006.4 6.8
2015-Jan-25 20:00N 57°28' W 142°58'0 0.0 1006.2 6.8
2015-Jan-25 19:00N 57°28' W 142°58'0 0.2 1005.0 6.8
2015-Jan-25 18:00N 57°28' W 142°58'0 0.0 1004.3 6.8
2015-Jan-25 17:00N 57°28' W 142°58'2 1.7 1003.4 6.8
2015-Jan-25 16:00N 57°30' W 142°56'0 0.0 1002.6 6.8
2015-Jan-25 15:00N 57°30' W 142°56'0 0.2 1001.8 6.8
2015-Jan-25 14:00N 57°30' W 142°56'0 0.3 1000.7 6.8
2015-Jan-25 13:00N 57°30' W 142°56'0 0.0 999.6 6.8
2015-Jan-25 12:00N 57°30' W 142°56'0 0.1 998.4 6.8
2015-Jan-25 11:00N 57°30' W 142°56'0 0.0 997.3 6.8
2015-Jan-25 10:00N 57°30' W 142°56'2 1.8 996.0 6.8
2015-Jan-25 09:00N 57°30' W 142°59'0 0.0 994.6 6.9
2015-Jan-25 07:00N 57°30' W 142°59'0 0.3 992.1 6.9
2015-Jan-25 06:00N 57°30' W 142°59'1 0.8 990.8 6.9
2015-Jan-25 05:00N 57°29' W 142°59'1 0.6 990.3 6.9
2015-Jan-25 04:00N 57°29' W 142°59'1 0.9 989.6 6.9
2015-Jan-25 03:00N 57°28' W 142°57'1 1.1 988.8 6.8
2015-Jan-25 02:00N 57°29' W 142°55'1 0.8 988.6 6.9
2015-Jan-25 01:00N 57°29' W 142°57'1 1.5 988.7 6.9
2015-Jan-25 00:00N 57°30' W 142°55'1 1.2 989.5 6.9
2015-Jan-24 23:00N 57°30' W 142°53'3 3.4 990.7 6.9
2015-Jan-24 22:00N 57°29' W 142°59'0 0.0 992.3 6.9
2015-Jan-24 21:00N 57°29' W 142°59'2 1.6 993.9 6.9
2015-Jan-24 20:00N 57°31' W 142°58'0 0.0 995.7 6.9
2015-Jan-24 19:00N 57°31' W 142°58'2 1.8 997.3 6.9
2015-Jan-24 18:00N 57°29' W 142°57'2 2.1 998.7 6.9
2015-Jan-24 17:00N 57°27' W 142°59'0 0.0 999.7 7.0
2015-Jan-24 16:00N 57°27' W 142°59'1 1.5 1000.2 7.0
2015-Jan-24 15:00N 57°26' W 142°57'0 0.1 1000.9 7.0
2015-Jan-24 14:00N 57°26' W 142°57'2 2.2 1002.1 7.0
2015-Jan-24 13:00N 57°26' W 142°53'2 1.9 1002.3 6.9
2015-Jan-24 12:00N 57°27' W 142°55'0 0.4 1002.9 6.9
2015-Jan-24 11:00N 57°27' W 142°56'0 0.0 1003.5 6.9
2015-Jan-24 09:00N 57°27' W 142°56'0 0.0 1002.6 6.9
2015-Jan-24 08:00N 57°27' W 142°56'2 2.4 1001.5 6.9
2015-Jan-24 07:00N 57°25' W 142°57'0 0.0 1000.2 6.9
2015-Jan-24 06:00N 57°25' W 142°57'0 0.0 998.7 6.9
2015-Jan-24 05:00N 57°25' W 142°57'0 0.0 996.5 6.9
2015-Jan-24 04:00N 57°25' W 142°57'1 0.5 994.1 6.9
2015-Jan-24 03:00N 57°25' W 142°56'0 0.5 991.3 6.9
2015-Jan-24 02:00N 57°25' W 142°55'0 0.0 989.2 6.9
2015-Jan-24 01:00N 57°25' W 142°55'1 0.7 987.2 6.9
2015-Jan-24 00:00N 57°24' W 142°56'2 1.7 986.1 6.9
2015-Jan-23 23:00N 57°25' W 142°54'1 0.5 985.2 6.9
2015-Jan-23 22:00N 57°25' W 142°53'3 1.5 984.5 6.9
2015-Jan-23 20:00N 57°24' W 142°57'0 0.0 984.1 6.9
2015-Jan-23 19:00N 57°24' W 142°57'1 1.3 983.9 6.9
2015-Jan-23 18:00N 57°25' W 142°56'1 0.6 984.3 6.9
2015-Jan-23 17:00N 57°24' W 142°56'1 1.2 985.1 6.9
2015-Jan-23 16:00N 57°23' W 142°57'0 0.0 986.6 6.9
2015-Jan-23 15:00N 57°23' W 142°57'2 1.7 988.0 7.0
2015-Jan-23 14:00N 57°22' W 142°56'1 0.6 989.5 7.0
2015-Jan-23 13:00N 57°21' W 142°57'0 0.0 991.0 7.0
2015-Jan-23 12:00N 57°21' W 142°57'2 2.0 992.4 7.0
2015-Jan-23 11:00N 57°20' W 142°53'0 0.0 993.5 7.0
2015-Jan-23 09:00N 57°20' W 142°53'0 0.2 994.3 7.0
2015-Jan-23 07:00N 57°21' W 142°53'0 0.0 994.1 7.0
2015-Jan-23 06:00N 57°21' W 142°53'2 1.7 992.9 7.0
2015-Jan-23 05:00N 57°21' W 142°56'0 0.3 991.8 7.0
2015-Jan-23 04:00N 57°20' W 142°56'0 0.0 990.8 7.0
2015-Jan-23 03:00N 57°20' W 142°56'2 1.6 989.5 7.0
2015-Jan-23 02:00N 57°19' W 142°57'0 0.0 988.6 7.0
2015-Jan-23 01:00N 57°19' W 142°57'0 0.0 987.8 7.1
2015-Jan-23 00:00N 57°19' W 142°57'2 1.8 987.6 7.0
2015-Jan-22 23:00N 57°18' W 142°54'1 1.3 988.0 7.0
2015-Jan-22 22:00N 57°18' W 142°56'1 0.9 988.5 7.0
2015-Jan-22 21:00N 57°19' W 142°55'1 1.0 989.3 7.1
2015-Jan-22 20:00N 57°18' W 142°56'1 0.9 990.0 7.0
2015-Jan-22 19:00N 57°17' W 142°55'0 0.0 990.2 7.0
2015-Jan-22 18:00N 57°17' W 142°55'1 0.7 990.2 7.0
2015-Jan-22 17:00N 57°18' W 142°55'1 1.3 990.2 7.0
2015-Jan-22 16:00N 57°16' W 142°57'0 0.0 990.5 7.0
2015-Jan-22 15:00N 57°16' W 142°57'0 0.0 990.9 7.0
2015-Jan-22 14:00N 57°16' W 142°57'0 0.2 991.4 7.0
2015-Jan-22 13:00N 57°16' W 142°57'2 0.9 992.0 7.0
2015-Jan-22 11:00N 57°15' W 142°55'0 0.1 992.0 7.0
2015-Jan-22 07:00N 57°15' W 142°55'0 0.5 989.3 7.0
2015-Jan-22 06:00N 57°15' W 142°55'0 0.4 988.1 7.0
2015-Jan-22 05:00N 57°15' W 142°56'1 0.9 986.9 7.0
2015-Jan-22 04:00N 57°15' W 142°54'0 0.0 985.6 7.0
2015-Jan-22 03:00N 57°15' W 142°54'0 0.4 984.3 7.0
2015-Jan-22 02:00N 57°15' W 142°55'0 0.2 983.2 7.0
2015-Jan-22 01:00N 57°15' W 142°55'0 0.1 981.7 7.0
2015-Jan-22 00:00N 57°15' W 142°55'0 0.3 980.7 7.0
2015-Jan-21 23:00N 57°15' W 142°55'0 0.2 980.2 7.0
2015-Jan-21 21:00N 57°15' W 142°55'1 1.4 980.5 7.0
2015-Jan-21 20:00N 57°13' W 142°54'0 0.0 981.4 7.0
2015-Jan-21 18:00N 57°13' W 142°54'0 0.0 983.1 7.0
2015-Jan-21 17:00N 57°13' W 142°54'0 0.0 984.3 7.0
2015-Jan-21 16:00N 57°13' W 142°54'1 0.6 985.9 7.0
2015-Jan-21 15:00N 57°13' W 142°53'1 0.3 987.0 7.0
2015-Jan-21 13:00N 57°13' W 142°52'0 0.0 989.2 7.0
2015-Jan-21 11:00N 57°13' W 142°52'2 1.9 989.8 7.0
2015-Jan-21 10:00N 57°11' W 142°53'0 0.0 990.5 7.0
2015-Jan-21 07:00N 57°11' W 142°53'1 1.0 990.4 7.0
2015-Jan-21 06:00N 57°12' W 142°51'2 1.5 990.6 7.0
2015-Jan-21 05:00N 57°11' W 142°53'0 0.3 990.4 7.0
2015-Jan-21 04:00N 57°11' W 142°53'1 1.5 990.9 7.0
2015-Jan-21 03:00N 57°10' W 142°51'0 0.0 991.3 7.0
2015-Jan-21 01:00N 57°10' W 142°51'0 0.0 991.3 7.0
2015-Jan-21 00:00N 57°10' W 142°51'0 0.2 991.4 7.1
2015-Jan-20 23:00N 57°10' W 142°51'1 0.5 991.2 7.1
2015-Jan-20 21:00N 57°10' W 142°49'3 2.6 991.6 7.1
2015-Jan-20 20:00N 57°09' W 142°53'0 0.0 991.2 7.1
2015-Jan-20 18:00N 57°09' W 142°53'2 2.1 989.7 7.1
2015-Jan-20 17:00N 57°07' W 142°53'1 0.1 989.1 7.1
2015-Jan-20 13:00N 57°06' W 142°53'1 1.3 990.7 7.1
2015-Jan-20 12:00N 57°05' W 142°53'3 1.6 991.8 7.1
2015-Jan-20 10:00N 57°03' W 142°48'0 0.0 993.2 7.1
2015-Jan-20 08:00N 57°03' W 142°48'0 0.0 998.2 7.1
2015-Jan-20 06:00N 57°03' W 142°48'0 0.0 1003.4 7.1
2015-Jan-20 05:00N 57°03' W 142°48'0 0.0 1005.4 7.1
2015-Jan-20 04:00N 57°03' W 142°48'2 1.6 1007.0 7.1
2015-Jan-20 03:00N 57°02' W 142°49'0 0.0 1008.4 7.1
2015-Jan-20 02:00N 57°02' W 142°49'0 0.3 1009.4 7.1
2015-Jan-20 01:00N 57°02' W 142°48'0 0.0 1009.9 7.1
2015-Jan-20 00:00N 57°02' W 142°48'2 1.1 1010.6 7.1
2015-Jan-19 22:00N 56°60' W 142°46'1 0.9 1011.0 7.1
2015-Jan-19 21:00N 56°60' W 142°45'1 1.3 1011.3 7.1
2015-Jan-19 20:00N 56°59' W 142°42'0 0.0 1011.4 7.0
2015-Jan-19 19:00N 56°59' W 142°42'0 0.3 1011.1 7.1
2015-Jan-19 18:00N 56°59' W 142°43'1 0.9 1010.5 7.1
2015-Jan-19 17:00N 56°59' W 142°44'0 0.2 1009.7 7.1
2015-Jan-19 15:00N 56°59' W 142°44'0 0.5 1009.0 7.1
2015-Jan-19 14:00N 56°59' W 142°45'4 2.0 1008.5 7.1
2015-Jan-19 12:00N 56°57' W 142°39'0 0.0 1007.2 7.1
2015-Jan-19 10:00N 56°57' W 142°39'0 0.0 1005.2 7.1
2015-Jan-19 09:00N 56°57' W 142°39'0 0.0 1004.4 7.1
2015-Jan-19 07:00N 56°57' W 142°39'0 0.0 1002.6 7.1
2015-Jan-19 06:00N 56°57' W 142°39'0 0.0 1001.9 7.1
2015-Jan-19 05:00N 56°57' W 142°39'1 1.2 1001.1 7.1
2015-Jan-19 04:00N 56°56' W 142°41'1 0.8 1000.1 7.1
2015-Jan-19 03:00N 56°56' W 142°40'1 0.8 999.4 7.1
2015-Jan-19 02:00N 56°57' W 142°41'0 0.0 998.5 7.1
2015-Jan-19 01:00N 56°57' W 142°41'1 0.5 997.7 7.1
2015-Jan-19 00:00N 56°56' W 142°40'0 0.0 997.0 7.1
2015-Jan-18 23:00N 56°56' W 142°40'3 2.6 996.3 7.1
2015-Jan-18 22:00N 56°54' W 142°40'0 0.0 995.7 7.1
2015-Jan-18 21:00N 56°54' W 142°40'0 0.3 995.4 7.1
2015-Jan-18 20:00N 56°53' W 142°41'2 2.5 995.0 7.1
2015-Jan-18 19:00N 56°53' W 142°36'0 0.0 994.8 7.1
2015-Jan-18 18:00N 56°53' W 142°36'0 0.0 994.3 7.1
2015-Jan-18 17:00N 56°53' W 142°36'1 1.0 993.9 7.1
2015-Jan-18 16:00N 56°54' W 142°38'1 0.8 994.0 7.1
2015-Jan-18 15:00N 56°53' W 142°36'1 1.5 994.1 7.1
2015-Jan-18 14:00N 56°53' W 142°39'2 1.7 994.3 7.1
2015-Jan-18 13:00N 56°53' W 142°36'3 2.8 994.4 7.1
2015-Jan-18 12:00N 56°51' W 142°37'0 0.0 994.6 7.1
2015-Jan-18 10:00N 56°51' W 142°37'0 0.0 994.9 7.1
2015-Jan-18 09:00N 56°51' W 142°37'0 0.0 995.1 7.1
2015-Jan-18 07:00N 56°51' W 142°37'1 0.9 995.5 7.1
2015-Jan-18 06:00N 56°51' W 142°36'1 1.1 995.6 7.1
2015-Jan-18 05:00N 56°50' W 142°35'0 0.3 995.7 7.1
2015-Jan-18 04:00N 56°50' W 142°35'1 0.6 995.4 7.1
2015-Jan-18 03:00N 56°50' W 142°34'1 0.6 995.9 7.1
2015-Jan-18 02:00N 56°49' W 142°34'1 0.6 995.7 7.1
2015-Jan-18 01:00N 56°50' W 142°34'0 0.2 995.5 7.1
2015-Jan-18 00:00N 56°50' W 142°34'0 0.0 995.4 7.1
2015-Jan-17 23:00N 56°50' W 142°34'1 0.6 995.1 7.1
2015-Jan-17 22:00N 56°49' W 142°33'0 0.0 995.0 7.1
2015-Jan-17 21:00N 56°49' W 142°33'1 1.0 994.7 7.1
2015-Jan-17 20:00N 56°49' W 142°35'2 2.0 994.4 7.1
2015-Jan-17 19:00N 56°47' W 142°35'0 0.2 994.0 7.1
2015-Jan-17 18:00N 56°47' W 142°36'0 0.0 993.4 7.1
2015-Jan-17 16:00N 56°47' W 142°36'2 1.7 992.3 7.1
2015-Jan-17 15:00N 56°46' W 142°38'1 1.5 991.7 7.1
2015-Jan-17 14:00N 56°46' W 142°35'3 3.2 990.8 7.1
2015-Jan-17 13:00N 56°47' W 142°30'0 0.0 990.2 7.1
2015-Jan-17 12:00N 56°47' W 142°30'3 0.5 989.4 7.2
2015-Jan-17 06:00N 56°47' W 142°35'0 0.4 984.0 7.2
2015-Jan-17 05:00N 56°47' W 142°35'   983.5 7.2
Track history (hours):
 
Tides and Currents Weather Stations Pressure Air Temp Water Temp Dewpoint Dewpoint Depression Visibility Wind Speed Wind Dir Waves Ship Positions

Drifting buoy 46762

Last reported at 2015-Jan-27 05:00 UTC. Time now 2015-Jan-27 08:27 UTC.
Position N 57°31' W 142°56'.

Barometer 1012.3 mb
Water temperature 6.8 ° C

Date/timePositionNaut miles runAvg speedWind from/ knotsBaromVisibWave heightAir tempDewpointWater temp
2015-Jan-27 05:00N 57°31' W 142°56'1 1.0 1012.3 6.8
2015-Jan-27 04:00N 57°30' W 142°55'1 1.0 1012.3 6.8
2015-Jan-27 03:00N 57°31' W 142°54'2 1.8 1012.6 6.8
2015-Jan-27 02:00N 57°30' W 142°57'2 2.0 1012.8 6.8
2015-Jan-27 01:00N 57°30' W 142°53'0 0.3 1013.0 6.8
2015-Jan-27 00:00N 57°30' W 142°54'0 0.0 1013.2 6.8
2015-Jan-26 23:00N 57°30' W 142°54'0 0.4 1013.7 6.8
2015-Jan-26 22:00N 57°30' W 142°54'1 0.3 1014.1 6.8
2015-Jan-26 20:00N 57°30' W 142°53'1 1.2 1014.6 6.8
2015-Jan-26 19:00N 57°30' W 142°55'0 0.0 1014.4 6.8
2015-Jan-26 18:00N 57°30' W 142°55'0 0.4 1014.3 6.8
2015-Jan-26 17:00N 57°30' W 142°54'1 1.1 1014.1 6.8
2015-Jan-26 16:00N 57°30' W 142°53'2 1.7 1014.2 6.8
2015-Jan-26 15:00N 57°31' W 142°56'1 1.0 1014.4 6.8
2015-Jan-26 14:00N 57°30' W 142°55'1 1.3 1014.3 6.8
2015-Jan-26 13:00N 57°30' W 142°53'1 0.9 1014.3 6.8
2015-Jan-26 12:00N 57°30' W 142°55'0 0.0 1014.6 6.8
2015-Jan-26 11:00N 57°30' W 142°55'0 0.2 1014.5 6.8
2015-Jan-26 10:00N 57°30' W 142°54'0 0.1 1014.2 6.8
2015-Jan-26 07:00N 57°30' W 142°55'0 0.0 1012.8 6.8
2015-Jan-26 06:00N 57°30' W 142°55'1 0.6 1012.3 6.8
2015-Jan-26 05:00N 57°29' W 142°54'1 0.6 1011.7 6.8
2015-Jan-26 04:00N 57°29' W 142°55'2 1.9 1010.8 6.8
2015-Jan-26 03:00N 57°31' W 142°57'2 1.8 1010.0 6.8
2015-Jan-26 02:00N 57°29' W 142°58'0 0.0 1009.0 6.8
2015-Jan-26 01:00N 57°29' W 142°58'0 0.0 1008.1 6.8
2015-Jan-26 00:00N 57°29' W 142°58'0 0.0 1007.5 6.8
2015-Jan-25 23:00N 57°29' W 142°58'0 0.0 1006.9 6.8
2015-Jan-25 22:00N 57°29' W 142°58'0 0.0 1006.6 6.8
2015-Jan-25 21:00N 57°29' W 142°58'1 1.0 1006.4 6.8
2015-Jan-25 20:00N 57°28' W 142°58'0 0.0 1006.2 6.8
2015-Jan-25 19:00N 57°28' W 142°58'0 0.2 1005.0 6.8
2015-Jan-25 18:00N 57°28' W 142°58'0 0.0 1004.3 6.8
2015-Jan-25 17:00N 57°28' W 142°58'2 1.7 1003.4 6.8
2015-Jan-25 16:00N 57°30' W 142°56'0 0.0 1002.6 6.8
2015-Jan-25 15:00N 57°30' W 142°56'0 0.2 1001.8 6.8
2015-Jan-25 14:00N 57°30' W 142°56'0 0.3 1000.7 6.8
2015-Jan-25 13:00N 57°30' W 142°56'0 0.0 999.6 6.8
2015-Jan-25 12:00N 57°30' W 142°56'0 0.1 998.4 6.8
2015-Jan-25 11:00N 57°30' W 142°56'0 0.0 997.3 6.8
2015-Jan-25 10:00N 57°30' W 142°56'2 1.8 996.0 6.8
2015-Jan-25 09:00N 57°30' W 142°59'0 0.0 994.6 6.9
2015-Jan-25 07:00N 57°30' W 142°59'0 0.3 992.1 6.9
2015-Jan-25 06:00N 57°30' W 142°59'1 0.8 990.8 6.9
2015-Jan-25 05:00N 57°29' W 142°59'1 0.6 990.3 6.9
2015-Jan-25 04:00N 57°29' W 142°59'1 0.9 989.6 6.9
2015-Jan-25 03:00N 57°28' W 142°57'1 1.1 988.8 6.8
2015-Jan-25 02:00N 57°29' W 142°55'1 0.8 988.6 6.9
2015-Jan-25 01:00N 57°29' W 142°57'1 1.5 988.7 6.9
2015-Jan-25 00:00N 57°30' W 142°55'1 1.2 989.5 6.9
2015-Jan-24 23:00N 57°30' W 142°53'3 3.4 990.7 6.9
2015-Jan-24 22:00N 57°29' W 142°59'0 0.0 992.3 6.9
2015-Jan-24 21:00N 57°29' W 142°59'2 1.6 993.9 6.9
2015-Jan-24 20:00N 57°31' W 142°58'0 0.0 995.7 6.9
2015-Jan-24 19:00N 57°31' W 142°58'2 1.8 997.3 6.9
2015-Jan-24 18:00N 57°29' W 142°57'2 2.1 998.7 6.9
2015-Jan-24 17:00N 57°27' W 142°59'0 0.0 999.7 7.0
2015-Jan-24 16:00N 57°27' W 142°59'1 1.5 1000.2 7.0
2015-Jan-24 15:00N 57°26' W 142°57'0 0.1 1000.9 7.0
2015-Jan-24 14:00N 57°26' W 142°57'2 2.2 1002.1 7.0
2015-Jan-24 13:00N 57°26' W 142°53'2 1.9 1002.3 6.9
2015-Jan-24 12:00N 57°27' W 142°55'0 0.4 1002.9 6.9
2015-Jan-24 11:00N 57°27' W 142°56'0 0.0 1003.5 6.9
2015-Jan-24 09:00N 57°27' W 142°56'0 0.0 1002.6 6.9
2015-Jan-24 08:00N 57°27' W 142°56'2 2.4 1001.5 6.9
2015-Jan-24 07:00N 57°25' W 142°57'0 0.0 1000.2 6.9
2015-Jan-24 06:00N 57°25' W 142°57'0 0.0 998.7 6.9
2015-Jan-24 05:00N 57°25' W 142°57'0 0.0 996.5 6.9
2015-Jan-24 04:00N 57°25' W 142°57'1 0.5 994.1 6.9
2015-Jan-24 03:00N 57°25' W 142°56'0 0.5 991.3 6.9
2015-Jan-24 02:00N 57°25' W 142°55'0 0.0 989.2 6.9
2015-Jan-24 01:00N 57°25' W 142°55'1 0.7 987.2 6.9
2015-Jan-24 00:00N 57°24' W 142°56'2 1.7 986.1 6.9
2015-Jan-23 23:00N 57°25' W 142°54'1 0.5 985.2 6.9
2015-Jan-23 22:00N 57°25' W 142°53'3 1.5 984.5 6.9
2015-Jan-23 20:00N 57°24' W 142°57'0 0.0 984.1 6.9
2015-Jan-23 19:00N 57°24' W 142°57'1 1.3 983.9 6.9
2015-Jan-23 18:00N 57°25' W 142°56'1 0.6 984.3 6.9
2015-Jan-23 17:00N 57°24' W 142°56'1 1.2 985.1 6.9
2015-Jan-23 16:00N 57°23' W 142°57'0 0.0 986.6 6.9
2015-Jan-23 15:00N 57°23' W 142°57'2 1.7 988.0 7.0
2015-Jan-23 14:00N 57°22' W 142°56'1 0.6 989.5 7.0
2015-Jan-23 13:00N 57°21' W 142°57'0 0.0 991.0 7.0
2015-Jan-23 12:00N 57°21' W 142°57'2 2.0 992.4 7.0
2015-Jan-23 11:00N 57°20' W 142°53'0 0.0 993.5 7.0
2015-Jan-23 09:00N 57°20' W 142°53'0 0.2 994.3 7.0
2015-Jan-23 07:00N 57°21' W 142°53'0 0.0 994.1 7.0
2015-Jan-23 06:00N 57°21' W 142°53'2 1.7 992.9 7.0
2015-Jan-23 05:00N 57°21' W 142°56'0 0.3 991.8 7.0
2015-Jan-23 04:00N 57°20' W 142°56'0 0.0 990.8 7.0
2015-Jan-23 03:00N 57°20' W 142°56'2 1.6 989.5 7.0
2015-Jan-23 02:00N 57°19' W 142°57'0 0.0 988.6 7.0
2015-Jan-23 01:00N 57°19' W 142°57'0 0.0 987.8 7.1
2015-Jan-23 00:00N 57°19' W 142°57'2 1.8 987.6 7.0
2015-Jan-22 23:00N 57°18' W 142°54'1 1.3 988.0 7.0
2015-Jan-22 22:00N 57°18' W 142°56'1 0.9 988.5 7.0
2015-Jan-22 21:00N 57°19' W 142°55'1 1.0 989.3 7.1
2015-Jan-22 20:00N 57°18' W 142°56'1 0.9 990.0 7.0
2015-Jan-22 19:00N 57°17' W 142°55'0 0.0 990.2 7.0
2015-Jan-22 18:00N 57°17' W 142°55'1 0.7 990.2 7.0
2015-Jan-22 17:00N 57°18' W 142°55'1 1.3 990.2 7.0
2015-Jan-22 16:00N 57°16' W 142°57'0 0.0 990.5 7.0
2015-Jan-22 15:00N 57°16' W 142°57'0 0.0 990.9 7.0
2015-Jan-22 14:00N 57°16' W 142°57'0 0.2 991.4 7.0
2015-Jan-22 13:00N 57°16' W 142°57'2 0.9 992.0 7.0
2015-Jan-22 11:00N 57°15' W 142°55'0 0.1 992.0 7.0
2015-Jan-22 07:00N 57°15' W 142°55'0 0.5 989.3 7.0
2015-Jan-22 06:00N 57°15' W 142°55'0 0.4 988.1 7.0
2015-Jan-22 05:00N 57°15' W 142°56'1 0.9 986.9 7.0
2015-Jan-22 04:00N 57°15' W 142°54'0 0.0 985.6 7.0
2015-Jan-22 03:00N 57°15' W 142°54'0 0.4 984.3 7.0
2015-Jan-22 02:00N 57°15' W 142°55'0 0.2 983.2 7.0
2015-Jan-22 01:00N 57°15' W 142°55'0 0.1 981.7 7.0
2015-Jan-22 00:00N 57°15' W 142°55'0 0.3 980.7 7.0
2015-Jan-21 23:00N 57°15' W 142°55'0 0.2 980.2 7.0
2015-Jan-21 21:00N 57°15' W 142°55'1 1.4 980.5 7.0
2015-Jan-21 20:00N 57°13' W 142°54'0 0.0 981.4 7.0
2015-Jan-21 18:00N 57°13' W 142°54'0 0.0 983.1 7.0
2015-Jan-21 17:00N 57°13' W 142°54'0 0.0 984.3 7.0
2015-Jan-21 16:00N 57°13' W 142°54'1 0.6 985.9 7.0
2015-Jan-21 15:00N 57°13' W 142°53'1 0.3 987.0 7.0
2015-Jan-21 13:00N 57°13' W 142°52'0 0.0 989.2 7.0
2015-Jan-21 11:00N 57°13' W 142°52'2 1.9 989.8 7.0
2015-Jan-21 10:00N 57°11' W 142°53'0 0.0 990.5 7.0
2015-Jan-21 07:00N 57°11' W 142°53'1 1.0 990.4 7.0
2015-Jan-21 06:00N 57°12' W 142°51'2 1.5 990.6 7.0
2015-Jan-21 05:00N 57°11' W 142°53'0 0.3 990.4 7.0
2015-Jan-21 04:00N 57°11' W 142°53'1 1.5 990.9 7.0
2015-Jan-21 03:00N 57°10' W 142°51'0 0.0 991.3 7.0
2015-Jan-21 01:00N 57°10' W 142°51'0 0.0 991.3 7.0
2015-Jan-21 00:00N 57°10' W 142°51'0 0.2 991.4 7.1
2015-Jan-20 23:00N 57°10' W 142°51'1 0.5 991.2 7.1
2015-Jan-20 21:00N 57°10' W 142°49'3 2.6 991.6 7.1
2015-Jan-20 20:00N 57°09' W 142°53'0 0.0 991.2 7.1
2015-Jan-20 18:00N 57°09' W 142°53'2 2.1 989.7 7.1
2015-Jan-20 17:00N 57°07' W 142°53'1 0.1 989.1 7.1
2015-Jan-20 13:00N 57°06' W 142°53'1 1.3 990.7 7.1
2015-Jan-20 12:00N 57°05' W 142°53'3 1.6 991.8 7.1
2015-Jan-20 10:00N 57°03' W 142°48'0 0.0 993.2 7.1
2015-Jan-20 08:00N 57°03' W 142°48'0 0.0 998.2 7.1
2015-Jan-20 06:00N 57°03' W 142°48'0 0.0 1003.4 7.1
2015-Jan-20 05:00N 57°03' W 142°48'0 0.0 1005.4 7.1
2015-Jan-20 04:00N 57°03' W 142°48'2 1.6 1007.0 7.1
2015-Jan-20 03:00N 57°02' W 142°49'0 0.0 1008.4 7.1
2015-Jan-20 02:00N 57°02' W 142°49'0 0.3 1009.4 7.1
2015-Jan-20 01:00N 57°02' W 142°48'0 0.0 1009.9 7.1
2015-Jan-20 00:00N 57°02' W 142°48'2 1.1 1010.6 7.1
2015-Jan-19 22:00N 56°60' W 142°46'1 0.9 1011.0 7.1
2015-Jan-19 21:00N 56°60' W 142°45'1 1.3 1011.3 7.1
2015-Jan-19 20:00N 56°59' W 142°42'0 0.0 1011.4 7.0
2015-Jan-19 19:00N 56°59' W 142°42'0 0.3 1011.1 7.1
2015-Jan-19 18:00N 56°59' W 142°43'1 0.9 1010.5 7.1
2015-Jan-19 17:00N 56°59' W 142°44'0 0.2 1009.7 7.1
2015-Jan-19 15:00N 56°59' W 142°44'0 0.5 1009.0 7.1
2015-Jan-19 14:00N 56°59' W 142°45'4 2.0 1008.5 7.1
2015-Jan-19 12:00N 56°57' W 142°39'0 0.0 1007.2 7.1
2015-Jan-19 10:00N 56°57' W 142°39'0 0.0 1005.2 7.1
2015-Jan-19 09:00N 56°57' W 142°39'0 0.0 1004.4 7.1
2015-Jan-19 07:00N 56°57' W 142°39'0 0.0 1002.6 7.1
2015-Jan-19 06:00N 56°57' W 142°39'0 0.0 1001.9 7.1
2015-Jan-19 05:00N 56°57' W 142°39'1 1.2 1001.1 7.1
2015-Jan-19 04:00N 56°56' W 142°41'1 0.8 1000.1 7.1
2015-Jan-19 03:00N 56°56' W 142°40'1 0.8 999.4 7.1
2015-Jan-19 02:00N 56°57' W 142°41'0 0.0 998.5 7.1
2015-Jan-19 01:00N 56°57' W 142°41'1 0.5 997.7 7.1
2015-Jan-19 00:00N 56°56' W 142°40'0 0.0 997.0 7.1
2015-Jan-18 23:00N 56°56' W 142°40'3 2.6 996.3 7.1
2015-Jan-18 22:00N 56°54' W 142°40'0 0.0 995.7 7.1
2015-Jan-18 21:00N 56°54' W 142°40'0 0.3 995.4 7.1
2015-Jan-18 20:00N 56°53' W 142°41'2 2.5 995.0 7.1
2015-Jan-18 19:00N 56°53' W 142°36'0 0.0 994.8 7.1
2015-Jan-18 18:00N 56°53' W 142°36'0 0.0 994.3 7.1
2015-Jan-18 17:00N 56°53' W 142°36'1 1.0 993.9 7.1
2015-Jan-18 16:00N 56°54' W 142°38'1 0.8 994.0 7.1
2015-Jan-18 15:00N 56°53' W 142°36'1 1.5 994.1 7.1
2015-Jan-18 14:00N 56°53' W 142°39'2 1.7 994.3 7.1
2015-Jan-18 13:00N 56°53' W 142°36'3 2.8 994.4 7.1
2015-Jan-18 12:00N 56°51' W 142°37'0 0.0 994.6 7.1
2015-Jan-18 10:00N 56°51' W 142°37'0 0.0 994.9 7.1
2015-Jan-18 09:00N 56°51' W 142°37'0 0.0 995.1 7.1
2015-Jan-18 07:00N 56°51' W 142°37'1 0.9 995.5 7.1
2015-Jan-18 06:00N 56°51' W 142°36'1 1.1 995.6 7.1
2015-Jan-18 05:00N 56°50' W 142°35'0 0.3 995.7 7.1
2015-Jan-18 04:00N 56°50' W 142°35'1 0.6 995.4 7.1
2015-Jan-18 03:00N 56°50' W 142°34'1 0.6 995.9 7.1
2015-Jan-18 02:00N 56°49' W 142°34'1 0.6 995.7 7.1
2015-Jan-18 01:00N 56°50' W 142°34'0 0.2 995.5 7.1
2015-Jan-18 00:00N 56°50' W 142°34'0 0.0 995.4 7.1
2015-Jan-17 23:00N 56°50' W 142°34'1 0.6 995.1 7.1
2015-Jan-17 22:00N 56°49' W 142°33'0 0.0 995.0 7.1
2015-Jan-17 21:00N 56°49' W 142°33'1 1.0 994.7 7.1
2015-Jan-17 20:00N 56°49' W 142°35'2 2.0 994.4 7.1
2015-Jan-17 19:00N 56°47' W 142°35'0 0.2 994.0 7.1
2015-Jan-17 18:00N 56°47' W 142°36'0 0.0 993.4 7.1
2015-Jan-17 16:00N 56°47' W 142°36'2 1.7 992.3 7.1
2015-Jan-17 15:00N 56°46' W 142°38'1 1.5 991.7 7.1
2015-Jan-17 14:00N 56°46' W 142°35'3 3.2 990.8 7.1
2015-Jan-17 13:00N 56°47' W 142°30'0 0.0 990.2 7.1
2015-Jan-17 12:00N 56°47' W 142°30'3 0.5 989.4 7.2
2015-Jan-17 06:00N 56°47' W 142°35'0 0.4 984.0 7.2
2015-Jan-17 05:00N 56°47' W 142°35'   983.5 7.2

Dump ship's entire track history